Time;durP1;ratioP1;P1;durP2;ratioP2;P2;SDS_P1;SDS_P2;PMS_P1;PMS_P2;Temp;Humidity;BMP_temperature;BMP_pressure;BME280_temperature;BME280_humidity;BME280_pressure;Samples;Min_cycle;Max_cycle;Signal;HPM_P1;HPM_P2
2022/02/07 00:02:11;;;;;;;0.60;0.52;;;;;;;4.39;100.00;95693.41;4997972;28;20085;-64
2022/02/07 00:04:38;;;;;;;1.02;0.60;;;;;;;4.42;100.00;95697.38;4995250;28;20658;-62
2022/02/07 00:07:05;;;;;;;0.95;0.80;;;;;;;4.39;100.00;95698.84;4995892;28;20041;-60
2022/02/07 00:09:32;;;;;;;0.95;0.70;;;;;;;4.35;100.00;95685.19;5002582;28;20045;-63
2022/02/07 00:11:57;;;;;;;1.25;0.63;;;;;;;4.45;100.00;95672.25;5001303;28;20550;-60
2022/02/07 00:14:23;;;;;;;2.08;0.60;;;;;;;4.46;100.00;95684.69;4987286;28;20137;-65
2022/02/07 00:16:48;;;;;;;2.25;0.68;;;;;;;4.44;100.00;95693.16;5002461;28;20038;-64
2022/02/07 00:19:22;;;;;;;2.88;0.77;;;;;;;4.44;100.00;95678.81;4987279;28;20408;-62
2022/02/07 00:21:48;;;;;;;1.23;0.60;;;;;;;4.43;100.00;95678.03;5010233;28;20463;-64
2022/02/07 00:24:13;;;;;;;2.30;0.77;;;;;;;4.42;100.00;95672.97;4996330;28;20076;-64
2022/02/07 00:26:39;;;;;;;2.22;0.75;;;;;;;4.40;100.00;95684.94;4999577;28;20042;-64
2022/02/07 00:29:04;;;;;;;0.93;0.60;;;;;;;4.40;100.00;95679.53;4990340;28;20125;-63
2022/02/07 00:31:30;;;;;;;0.63;0.47;;;;;;;4.42;100.00;95675.69;5023987;28;20054;-62
2022/02/07 00:33:56;;;;;;;0.77;0.60;;;;;;;4.36;100.00;95667.03;5003724;28;20042;-63
2022/02/07 00:36:22;;;;;;;1.45;0.50;;;;;;;4.35;100.00;95665.44;4994999;28;20489;-64
2022/02/07 00:38:51;;;;;;;0.80;0.50;;;;;;;4.34;100.00;95659.25;5000703;28;20049;-62
2022/02/07 00:41:20;;;;;;;2.03;0.73;;;;;;;4.31;100.00;95656.44;4995001;28;20597;-63
2022/02/07 00:43:52;;;;;;;1.63;0.73;;;;;;;4.31;100.00;95661.88;4991346;28;20065;-63
2022/02/07 00:46:23;;;;;;;0.98;0.57;;;;;;;4.32;100.00;95652.59;4992935;28;20394;-64
2022/02/07 00:48:49;;;;;;;0.60;0.60;;;;;;;4.27;100.00;95659.06;4999191;28;20116;-63
2022/02/07 00:51:14;;;;;;;1.60;1.00;;;;;;;4.33;100.00;95641.41;5008383;28;20196;-63
2022/02/07 00:53:40;;;;;;;0.60;0.60;;;;;;;4.35;100.00;95655.38;4997251;28;20042;-64
2022/02/07 00:56:05;;;;;;;1.23;0.50;;;;;;;4.36;100.00;95656.19;4995930;28;20537;-63
2022/02/07 00:58:31;;;;;;;1.85;0.70;;;;;;;4.42;100.00;95641.22;4997123;28;20069;-64
2022/02/07 01:00:57;;;;;;;2.50;1.02;;;;;;;4.45;100.00;95645.94;4994598;28;20045;-63
2022/02/07 01:03:23;;;;;;;0.57;0.57;;;;;;;4.44;100.00;95630.03;4996780;28;20535;-63
2022/02/07 01:05:49;;;;;;;0.60;0.60;;;;;;;4.43;100.00;95642.81;5009948;28;20538;-63
2022/02/07 01:08:19;;;;;;;0.50;0.50;;;;;;;4.45;100.00;95659.50;4975710;28;20161;-63
2022/02/07 01:13:24;;;;;;;0.90;0.40;;;;;;;4.42;100.00;95657.47;4974973;28;20053;-64
2022/02/07 01:16:30;;;;;;;0.73;0.70;;;;;;;4.47;100.00;95665.34;4981028;28;20049;-64
2022/02/07 01:19:16;;;;;;;0.57;0.50;;;;;;;4.50;100.00;95691.78;4982868;28;20049;-62
2022/02/07 01:56:35;;;;;;;1.10;0.50;;;;;;;3.11;100.00;96005.47;4979594;28;20042;-65
2022/02/07 01:59:00;;;;;;;0.60;0.60;;;;;;;3.16;100.00;95997.16;4989736;28;20050;-63
2022/02/07 02:01:25;;;;;;;0.70;0.70;;;;;;;3.14;100.00;96002.13;4976859;28;20042;-65
2022/02/07 02:03:51;;;;;;;0.57;0.57;;;;;;;3.12;100.00;96026.78;4980434;28;20046;-64
2022/02/07 02:06:16;;;;;;;0.50;0.50;;;;;;;3.15;100.00;96033.44;4975433;28;20046;-64
2022/02/07 02:08:42;;;;;;;0.52;0.52;;;;;;;3.03;100.00;96048.53;4980044;28;20042;-63
2022/02/07 02:11:08;;;;;;;0.50;0.50;;;;;;;3.04;100.00;96060.94;4976262;28;20101;-64
2022/02/07 02:16:19;;;;;;;0.60;0.60;;;;;;;2.99;100.00;96090.09;4975025;28;20138;-64
2022/02/07 02:35:36;;;;;;;0.60;0.60;;;;;;;2.95;100.00;96140.59;4973742;28;20050;-64
2022/02/07 02:38:07;;;;;;;0.60;0.60;;;;;;;2.97;100.00;96170.78;4975972;28;20068;-63
2022/02/07 02:45:44;;;;;;;0.95;0.68;;;;;;;3.02;100.00;96200.38;4981051;28;20495;-63
2022/02/07 02:48:24;;;;;;;0.50;0.50;;;;;;;3.00;100.00;96203.41;4975139;28;20101;-63
2022/02/07 02:50:53;;;;;;;0.52;0.52;;;;;;;2.97;100.00;96203.25;4978720;28;20066;-63
2022/02/07 02:53:20;;;;;;;0.70;0.70;;;;;;;2.79;100.00;96208.81;4974942;28;20042;-63
2022/02/07 02:55:48;;;;;;;2.22;0.70;;;;;;;2.89;100.00;96210.31;4979810;28;20050;-63
2022/02/07 02:58:18;;;;;;;0.60;0.60;;;;;;;2.73;100.00;96222.84;4974769;28;20113;-63
2022/02/07 03:00:45;;;;;;;;;;;;;;;2.63;100.00;96245.66;4980775;28;20076;-64
2022/02/07 03:03:10;;;;;;;0.75;0.73;;;;;;;2.48;100.00;96261.31;4976536;28;19918;-64
2022/02/07 03:05:36;;;;;;;1.83;0.70;;;;;;;2.43;100.00;96274.19;4979178;28;20074;-63
2022/02/07 03:08:01;;;;;;;0.73;0.60;;;;;;;2.40;100.00;96269.44;4981109;28;20061;-63
2022/02/07 03:10:42;;;;;;;0.47;0.47;;;;;;;2.52;100.00;96276.84;4976668;28;20104;-63
2022/02/07 03:18:24;;;;;;;3.45;0.57;;;;;;;2.27;100.00;96303.66;4977816;28;20076;-63
2022/02/07 03:20:51;;;;;;;0.60;0.60;;;;;;;2.35;100.00;96304.75;4984024;28;20573;-63
2022/02/07 03:23:17;;;;;;;2.08;0.60;;;;;;;2.32;100.00;96322.38;4987028;28;20042;-63
2022/02/07 03:25:42;;;;;;;1.58;0.98;;;;;;;2.34;100.00;96324.78;4983623;28;20042;-64
2022/02/07 03:28:08;;;;;;;1.02;0.90;;;;;;;2.50;100.00;96325.84;4977457;28;20049;-63
2022/02/07 03:30:34;;;;;;;1.77;0.93;;;;;;;2.55;100.00;96332.97;4991216;28;20053;-64
2022/02/07 03:33:00;;;;;;;1.73;0.60;;;;;;;2.59;100.00;96323.91;5021228;28;20046;-64
2022/02/07 03:35:26;;;;;;;1.08;0.65;;;;;;;2.47;100.00;96312.97;4995127;28;20509;-62
2022/02/07 03:37:52;;;;;;;0.60;0.60;;;;;;;2.44;100.00;96313.63;5001685;28;20037;-63
2022/02/07 03:40:18;;;;;;;3.20;0.98;;;;;;;2.40;100.00;96332.38;4996913;28;20061;-64
2022/02/07 03:42:43;;;;;;;1.70;0.70;;;;;;;2.46;100.00;96341.91;5005870;28;20041;-64
2022/02/07 03:45:09;;;;;;;0.95;0.77;;;;;;;2.44;100.00;96362.28;4999498;28;20491;-63
2022/02/07 03:47:35;;;;;;;1.10;0.80;;;;;;;2.41;100.00;96382.66;5020357;28;20046;-64
2022/02/07 03:50:01;;;;;;;1.67;0.90;;;;;;;2.48;100.00;96399.16;5007025;28;20127;-63
2022/02/07 03:52:27;;;;;;;1.52;0.90;;;;;;;2.36;100.00;96392.81;4997126;28;20053;-63
2022/02/07 03:54:53;;;;;;;1.17;0.80;;;;;;;2.29;100.00;96404.13;4991592;28;20061;-63
2022/02/07 03:57:18;;;;;;;0.60;0.60;;;;;;;2.25;100.00;96422.88;4987506;28;20038;-63
2022/02/07 03:59:44;;;;;;;2.85;0.80;;;;;;;2.38;100.00;96431.16;4985974;28;20344;-63
2022/02/07 04:02:10;;;;;;;1.30;0.90;;;;;;;2.31;100.00;96436.25;4998140;28;20513;-63
2022/02/07 04:04:37;;;;;;;0.93;0.60;;;;;;;2.21;100.00;96443.53;4998930;28;20049;-64
2022/02/07 04:07:06;;;;;;;2.83;0.90;;;;;;;2.32;100.00;96449.41;4994715;28;20039;-62
2022/02/07 04:09:37;;;;;;;0.98;0.70;;;;;;;2.18;100.00;96465.00;4998241;28;20056;-62
2022/02/07 04:12:09;;;;;;;5.45;1.80;;;;;;;2.24;100.00;96480.72;5016482;28;20108;-62
2022/02/07 04:14:34;;;;;;;3.47;1.00;;;;;;;2.14;100.00;96491.84;4986573;28;20381;-64
2022/02/07 04:17:00;;;;;;;1.40;0.93;;;;;;;2.20;100.00;96504.09;4996604;28;20038;-64
2022/02/07 04:19:32;;;;;;;1.90;0.70;;;;;;;2.23;100.00;96516.19;4994508;28;20046;-64
2022/02/07 04:21:58;;;;;;;2.78;0.70;;;;;;;2.18;100.00;96522.53;5001096;28;20046;-65
2022/02/07 04:24:23;;;;;;;3.53;1.17;;;;;;;2.08;100.00;96515.53;4991078;28;20038;-64
2022/02/07 04:26:49;;;;;;;2.05;0.90;;;;;;;1.99;100.00;96520.13;5002471;28;20101;-64
2022/02/07 04:29:14;;;;;;;2.17;0.82;;;;;;;2.04;100.00;96533.47;4980921;28;20104;-64
2022/02/07 04:31:40;;;;;;;4.10;0.68;;;;;;;1.95;100.00;96534.59;4999972;28;20092;-63
2022/02/07 04:34:05;;;;;;;1.13;0.93;;;;;;;1.88;100.00;96529.66;4996062;28;20049;-64
2022/02/07 04:36:31;;;;;;;2.58;0.82;;;;;;;1.79;100.00;96542.34;4993339;28;20053;-65
2022/02/07 04:38:56;;;;;;;0.82;0.75;;;;;;;1.77;100.00;96545.34;5016726;28;20084;-63
2022/02/07 04:41:23;;;;;;;3.53;0.90;;;;;;;1.72;100.00;96551.66;5011114;28;20384;-64
2022/02/07 04:44:02;;;;;;;2.92;0.80;;;;;;;1.62;100.00;96573.56;4995338;28;20108;-64
2022/02/07 04:49:19;;;;;;;2.80;0.77;;;;;;;1.67;100.00;96570.69;4995411;28;20049;-65
2022/02/07 05:00:01;;;;;;;2.33;1.00;;;;;;;1.58;100.00;96602.28;4999878;28;20057;-64
2022/02/07 05:02:45;;;;;;;3.10;0.80;;;;;;;1.48;100.00;96618.75;4997246;28;20080;-64
2022/02/07 05:16:26;;;;;;;3.70;2.35;;;;;;;1.13;100.00;96672.47;4964866;28;20525;-63
2022/02/07 05:18:56;;;;;;;1.95;1.00;;;;;;;1.23;100.00;96672.25;4991155;28;20047;-64
2022/02/07 05:21:22;;;;;;;2.28;1.10;;;;;;;1.31;100.00;96682.31;4986127;28;20045;-64
2022/02/07 05:23:48;;;;;;;4.68;1.00;;;;;;;1.46;100.00;96678.44;5010965;28;20129;-64
2022/02/07 05:26:14;;;;;;;3.35;1.42;;;;;;;1.52;100.00;96679.09;5004775;28;20046;-64
2022/02/07 05:28:39;;;;;;;2.47;1.00;;;;;;;1.47;100.00;96698.13;5001439;28;20042;-65
2022/02/07 05:31:05;;;;;;;3.15;1.10;;;;;;;1.53;100.00;96700.41;4987271;28;20048;-63
2022/02/07 05:33:31;;;;;;;4.20;1.08;;;;;;;1.51;100.00;96708.00;4980796;28;20042;-64
2022/02/07 05:35:56;;;;;;;5.13;1.17;;;;;;;1.63;100.00;96710.13;4986096;28;20456;-64
2022/02/07 05:38:22;;;;;;;5.45;1.00;;;;;;;1.78;100.00;96719.75;4996222;28;20197;-63
2022/02/07 05:40:58;;;;;;;3.88;1.40;;;;;;;1.92;100.00;96722.38;4996991;28;20050;-64
2022/02/07 05:43:24;;;;;;;1.63;0.90;;;;;;;2.01;100.00;96744.81;4978330;28;20526;-64
2022/02/07 05:45:49;;;;;;;2.75;1.00;;;;;;;2.27;100.00;96761.19;5001565;28;20565;-64
2022/02/07 05:48:15;;;;;;;6.50;1.35;;;;;;;2.55;97.80;96790.69;4987011;28;20053;-63
2022/02/07 05:50:40;;;;;;;5.15;1.20;;;;;;;2.04;100.00;96792.84;4995940;28;20136;-62
2022/02/07 05:53:06;;;;;;;5.05;1.60;;;;;;;1.39;100.00;96801.41;4995138;28;20099;-64
2022/02/07 05:55:32;;;;;;;8.95;1.40;;;;;;;1.08;100.00;96813.69;4983394;28;20391;-65
2022/02/07 05:57:57;;;;;;;2.78;1.30;;;;;;;0.99;100.00;96791.22;4988319;28;20097;-64
2022/02/07 06:00:23;;;;;;;3.75;1.40;;;;;;;0.89;100.00;96792.22;4983229;28;20130;-64
2022/02/07 06:02:48;;;;;;;6.40;1.40;;;;;;;0.93;100.00;96814.00;4999607;28;20042;-64
2022/02/07 06:05:14;;;;;;;6.40;1.45;;;;;;;0.88;100.00;96814.91;4989520;28;20045;-63
2022/02/07 06:07:40;;;;;;;5.90;1.42;;;;;;;0.82;100.00;96826.88;5001213;28;20042;-64
2022/02/07 06:10:06;;;;;;;7.35;1.80;;;;;;;0.70;100.00;96835.47;5006636;28;20060;-62
2022/02/07 06:12:39;;;;;;;4.45;1.20;;;;;;;0.86;100.00;96845.94;4997868;28;20058;-63
2022/02/07 06:15:06;;;;;;;4.88;1.40;;;;;;;0.81;100.00;96856.84;4988425;28;20046;-62
2022/02/07 06:17:31;;;;;;;3.53;1.27;;;;;;;0.81;100.00;96863.03;4996543;28;20117;-62
2022/02/07 06:19:59;;;;;;;5.70;1.30;;;;;;;0.87;100.00;96877.22;4994556;28;20133;-62
2022/02/07 06:22:26;;;;;;;1.75;1.20;;;;;;;0.81;100.00;96891.88;4994151;28;20537;-64
2022/02/07 06:24:52;;;;;;;1.48;0.98;;;;;;;0.75;100.00;96894.66;5010381;28;20649;-64
2022/02/07 06:27:17;;;;;;;1.92;1.42;;;;;;;0.67;100.00;96889.97;4986719;28;20129;-63
2022/02/07 06:29:43;;;;;;;1.13;0.70;;;;;;;0.85;100.00;96901.00;4990111;28;20136;-63
2022/02/07 06:32:08;;;;;;;1.70;1.17;;;;;;;1.00;100.00;96905.28;4987894;28;20065;-63
2022/02/07 06:34:33;;;;;;;1.75;1.05;;;;;;;0.90;100.00;96917.88;4999071;28;20050;-62
2022/02/07 06:36:59;;;;;;;6.15;1.38;;;;;;;0.79;100.00;96929.94;5009208;28;20034;-64
2022/02/07 06:39:24;;;;;;;2.45;1.20;;;;;;;0.65;100.00;96932.63;5003317;28;20080;-62
2022/02/07 06:41:51;;;;;;;3.70;1.00;;;;;;;0.70;100.00;96931.72;4997630;28;20135;-63
2022/02/07 06:44:17;;;;;;;7.45;2.83;;;;;;;0.68;100.00;96936.59;4981742;28;20488;-64
2022/02/07 06:46:42;;;;;;;5.95;3.05;;;;;;;0.66;100.00;96939.59;5010923;28;20113;-64
2022/02/07 06:49:08;;;;;;;2.08;1.20;;;;;;;0.69;100.00;96957.09;4995503;28;20039;-63
2022/02/07 06:51:33;;;;;;;2.22;1.25;;;;;;;0.73;100.00;96961.56;5005373;28;20112;-64
2022/02/07 06:53:59;;;;;;;2.95;1.73;;;;;;;0.75;100.00;96963.97;5001044;28;22115;-66
2022/02/07 06:56:26;;;;;;;6.40;1.90;;;;;;;0.68;100.00;96979.75;4979429;28;20108;-63
2022/02/07 06:58:51;;;;;;;7.45;1.83;;;;;;;0.63;100.00;96985.22;4984072;28;20125;-65
2022/02/07 07:01:17;;;;;;;6.55;2.22;;;;;;;0.74;100.00;96997.44;4986979;28;20141;-64
2022/02/07 07:03:45;;;;;;;11.50;2.67;;;;;;;0.67;100.00;97018.59;4998241;28;20125;-64
2022/02/07 07:06:11;;;;;;;9.43;2.50;;;;;;;0.86;100.00;97015.84;4993688;28;20065;-64
2022/02/07 07:08:42;;;;;;;10.18;2.17;;;;;;;0.85;100.00;97022.34;5003897;28;20392;-64
2022/02/07 07:11:08;;;;;;;8.88;1.83;;;;;;;0.85;100.00;97027.75;4994783;28;20479;-64
2022/02/07 07:13:46;;;;;;;7.90;2.33;;;;;;;0.91;100.00;97032.72;4989981;28;20057;-63
2022/02/07 07:16:53;;;;;;;5.50;1.80;;;;;;;0.88;100.00;97041.44;4982713;28;20198;-64
2022/02/07 07:19:01;;;;;;;6.20;1.55;;;;;;;0.98;100.00;97050.44;4967257;28;20076;-64
2022/02/07 07:21:26;;;;;;;10.55;2.58;;;;;;;1.09;100.00;97062.66;4958469;28;20647;-63
2022/02/07 07:23:53;;;;;;;11.65;2.35;;;;;;;0.91;100.00;97065.09;4984327;28;20042;-64
2022/02/07 07:26:20;;;;;;;12.73;2.13;;;;;;;0.83;100.00;97081.13;4997176;28;20038;-65
2022/02/07 07:28:46;;;;;;;9.27;1.50;;;;;;;0.82;100.00;97074.94;4989105;28;20057;-64
2022/02/07 07:31:13;;;;;;;4.05;1.50;;;;;;;0.83;100.00;97086.53;4976550;28;20396;-65
2022/02/07 07:33:41;;;;;;;8.30;3.38;;;;;;;0.94;100.00;97088.78;5006909;28;20120;-64
2022/02/07 07:36:06;;;;;;;9.90;2.38;;;;;;;1.34;100.00;97093.78;4967079;28;20069;-64
2022/02/07 07:38:31;;;;;;;5.82;1.63;;;;;;;1.43;100.00;97096.63;4991076;28;20433;-66
2022/02/07 07:40:57;;;;;;;5.90;1.20;;;;;;;1.31;100.00;97092.50;4997442;28;20092;-65
2022/02/07 07:43:22;;;;;;;6.13;1.45;;;;;;;1.21;100.00;97094.56;4990045;28;20046;-64
2022/02/07 07:46:01;;;;;;;4.25;1.40;;;;;;;1.24;100.00;97105.56;4980198;28;20041;-64
2022/02/07 07:48:28;;;;;;;6.03;1.70;;;;;;;1.91;100.00;97102.44;4978988;28;20518;-64
2022/02/07 07:51:21;;;;;;;5.55;1.50;;;;;;;1.90;100.00;97108.94;5017167;28;20124;-64
2022/02/07 08:01:48;;;;;;;3.05;1.50;;;;;;;3.44;95.93;97129.88;5002690;28;20053;-64
2022/02/07 08:04:16;;;;;;;4.10;1.10;;;;;;;3.76;94.14;97141.53;4983859;28;20050;-64
2022/02/07 08:07:10;;;;;;;4.85;1.52;;;;;;;3.84;88.29;97153.50;4986415;28;20044;-64
2022/02/07 08:12:04;;;;;;;2.65;1.20;;;;;;;4.30;86.73;97160.38;4980401;28;20046;-62
2022/02/07 08:14:35;;;;;;;3.60;1.13;;;;;;;4.50;83.23;97152.78;4984223;28;20049;-64
2022/02/07 08:17:02;;;;;;;4.07;1.67;;;;;;;4.29;85.45;97155.28;4989607;28;20051;-65
2022/02/07 08:19:28;;;;;;;3.47;1.38;;;;;;;4.27;86.13;97146.66;4986752;28;20074;-64
2022/02/07 08:21:54;;;;;;;6.85;3.15;;;;;;;4.04;85.70;97157.59;4994758;28;20491;-66
2022/02/07 08:24:20;;;;;;;7.00;1.80;;;;;;;3.49;86.54;97157.94;4976751;28;20046;-65
2022/02/07 08:26:46;;;;;;;5.43;1.17;;;;;;;3.27;85.30;97175.00;4985018;28;20398;-64
2022/02/07 08:29:12;;;;;;;6.57;1.67;;;;;;;3.04;87.97;97181.19;4981213;28;20126;-65
2022/02/07 08:31:38;;;;;;;6.78;1.50;;;;;;;3.00;88.99;97168.56;4996124;28;20080;-63
2022/02/07 08:34:04;;;;;;;5.50;1.38;;;;;;;2.76;89.36;97187.78;5000032;28;20500;-63
2022/02/07 08:36:29;;;;;;;6.63;1.48;;;;;;;2.68;90.57;97191.97;4996564;28;20042;-65
2022/02/07 08:38:55;;;;;;;3.25;1.85;;;;;;;2.70;90.62;97191.69;5002131;28;20433;-64
2022/02/07 08:41:21;;;;;;;5.70;1.60;;;;;;;2.86;91.09;97191.06;4997452;28;20038;-64
2022/02/07 08:43:46;;;;;;;4.13;1.45;;;;;;;2.96;88.80;97198.13;4991786;28;20704;-61
2022/02/07 08:46:11;;;;;;;5.70;1.60;;;;;;;2.77;89.37;97211.00;4993931;28;20543;-63
2022/02/07 08:48:37;;;;;;;10.13;1.95;;;;;;;3.12;88.32;97209.44;4991783;28;20125;-62
2022/02/07 08:51:05;;;;;;;9.57;1.92;;;;;;;2.90;89.00;97221.00;4989956;28;20133;-64
2022/02/07 08:53:36;;;;;;;3.25;1.08;;;;;;;2.79;88.41;97222.31;4983593;28;20053;-65
2022/02/07 08:56:03;;;;;;;4.95;1.40;;;;;;;2.92;87.87;97226.91;5002967;28;20129;-64
2022/02/07 08:58:32;;;;;;;5.75;1.50;;;;;;;3.14;86.65;97234.28;4992010;28;20479;-64
2022/02/07 09:03:43;;;;;;;5.05;1.60;;;;;;;2.90;87.50;97245.38;5000646;28;20041;-64
2022/02/07 09:06:26;;;;;;;7.70;2.22;;;;;;;2.79;87.57;97254.78;4995422;28;20057;-64
2022/02/07 09:09:05;;;;;;;8.52;1.88;;;;;;;3.02;86.21;97252.94;4994644;28;20037;-65
2022/02/07 09:11:30;;;;;;;3.57;2.00;;;;;;;3.00;89.04;97247.03;4998420;28;20077;-62
2022/02/07 09:13:57;;;;;;;5.35;1.10;;;;;;;2.99;87.50;97259.78;4998660;28;20061;-62
2022/02/07 09:16:33;;;;;;;7.75;1.70;;;;;;;3.19;89.05;97272.06;4996139;28;20974;-63
2022/02/07 09:19:00;;;;;;;3.90;1.30;;;;;;;3.25;87.48;97270.84;5000351;28;20046;-66
2022/02/07 09:21:28;;;;;;;13.68;1.75;;;;;;;3.33;86.48;97287.47;4996853;28;20046;-64
2022/02/07 09:23:55;;;;;;;5.13;1.05;;;;;;;3.25;86.66;97278.16;4994341;28;20056;-66
2022/02/07 09:26:20;;;;;;;5.43;1.50;;;;;;;3.27;86.70;97294.91;4990982;28;20487;-66
2022/02/07 09:28:46;;;;;;;4.45;1.80;;;;;;;3.03;86.85;97292.44;4992547;28;20132;-65
2022/02/07 09:31:12;;;;;;;2.55;1.27;;;;;;;2.97;88.15;97304.47;4996509;28;20046;-64
2022/02/07 09:33:41;;;;;;;3.88;1.30;;;;;;;3.14;88.86;97318.19;4992822;28;20113;-64
2022/02/07 09:36:07;;;;;;;7.82;1.45;;;;;;;3.10;90.28;97329.91;4993099;28;20558;-62
2022/02/07 09:38:33;;;;;;;6.75;1.65;;;;;;;3.35;87.90;97333.97;5014521;28;20054;-65
2022/02/07 09:40:59;;;;;;;4.00;1.45;;;;;;;3.38;86.73;97336.88;5015029;28;20077;-64
2022/02/07 09:43:31;;;;;;;4.63;1.40;;;;;;;3.30;85.49;97343.03;5000478;28;20530;-64
2022/02/07 09:46:07;;;;;;;5.45;1.80;;;;;;;3.13;86.01;97342.84;5002781;28;20434;-63
2022/02/07 09:48:42;;;;;;;8.15;2.08;;;;;;;3.03;86.54;97354.69;4992276;28;20454;-63
2022/02/07 09:51:09;;;;;;;4.03;1.60;;;;;;;3.24;85.97;97374.00;4990882;28;20510;-62
2022/02/07 09:53:35;;;;;;;9.20;2.13;;;;;;;3.53;84.02;97372.88;4999163;28;20041;-63
2022/02/07 09:56:02;;;;;;;4.45;1.50;;;;;;;3.43;83.89;97372.00;4990633;28;20049;-63
2022/02/07 09:58:32;;;;;;;4.25;1.50;;;;;;;3.33;83.04;97374.94;4990624;28;20053;-65
2022/02/07 10:01:00;;;;;;;7.45;1.98;;;;;;;3.67;82.57;97372.84;4991343;28;20041;-64
2022/02/07 10:03:34;;;;;;;12.15;1.95;;;;;;;3.50;83.19;97365.38;4987225;28;20128;-64
2022/02/07 10:06:15;;;;;;;10.10;1.73;;;;;;;3.39;82.72;97394.56;4991116;28;20409;-63
2022/02/07 10:09:00;;;;;;;6.28;2.25;;;;;;;3.53;81.21;97383.69;4976690;28;20038;-65
2022/02/07 10:14:17;;;;;;;10.02;2.97;;;;;;;3.58;81.94;97407.97;4964233;28;20124;-63
2022/02/07 10:19:36;;;;;;;7.55;1.67;;;;;;;3.13;81.21;97419.44;4977304;28;20124;-67
2022/02/07 10:47:10;;;;;;;5.35;1.67;;;;;;;3.25;83.29;97446.00;4985447;28;20045;-65
2022/02/07 10:49:36;;;;;;;5.55;1.65;;;;;;;3.20;83.79;97454.22;4987150;28;20104;-64
2022/02/07 10:52:03;;;;;;;6.20;1.70;;;;;;;3.37;82.98;97461.78;4980210;28;20667;-64
2022/02/07 10:54:28;;;;;;;5.53;1.60;;;;;;;3.37;81.96;97473.41;4980714;28;20165;-64
2022/02/07 10:56:55;;;;;;;6.90;2.17;;;;;;;3.65;82.47;97459.84;4978202;28;20118;-64
2022/02/07 10:59:22;;;;;;;6.30;1.70;;;;;;;3.62;81.08;97466.69;4977074;28;20050;-66
2022/02/07 11:04:23;;;;;;;6.80;1.40;;;;;;;4.01;79.54;97468.00;4971444;28;20038;-65
2022/02/07 11:06:52;;;;;;;7.43;1.60;;;;;;;4.11;77.62;97477.84;4977492;28;20487;-65
2022/02/07 11:14:39;;;;;;;3.78;1.58;;;;;;;3.76;80.69;97479.41;4971253;28;20163;-64
2022/02/07 11:20:26;;;;;;;5.10;1.30;;;;;;;4.23;78.15;97477.28;4999870;28;20039;-64
2022/02/07 11:25:28;;;;;;;6.70;2.03;;;;;;;3.97;78.81;97487.91;4983284;28;20069;-63
2022/02/07 11:27:58;;;;;;;8.50;1.40;;;;;;;4.31;77.33;97508.31;4984289;28;20078;-64
2022/02/07 11:30:50;;;;;;;14.43;1.85;;;;;;;4.40;72.55;97507.28;4972708;28;20042;-63
2022/02/07 11:33:34;;;;;;;9.93;1.20;;;;;;;4.09;71.17;97509.88;4977459;28;20051;-64
2022/02/07 11:36:03;;;;;;;4.47;1.17;;;;;;;4.28;70.14;97519.78;4982956;28;20038;-64
2022/02/07 11:38:29;;;;;;;9.18;2.38;;;;;;;4.53;67.63;97527.31;4984497;28;20046;-65
2022/02/07 11:40:55;;;;;;;7.90;1.42;;;;;;;4.24;68.25;97530.41;4986700;28;20061;-64
2022/02/07 11:43:22;;;;;;;7.82;1.38;;;;;;;4.53;66.64;97538.16;4961663;28;20061;-64
2022/02/07 11:46:06;;;;;;;3.42;1.40;;;;;;;4.84;65.48;97539.38;4984917;28;20133;-64
2022/02/07 11:48:43;;;;;;;3.88;1.00;;;;;;;4.79;65.80;97540.31;4990199;28;20038;-64
2022/02/07 11:51:27;;;;;;;4.72;1.20;;;;;;;5.54;65.04;97543.28;4970630;28;20050;-65
2022/02/07 11:53:59;;;;;;;4.45;1.38;;;;;;;6.52;62.11;97563.13;4986543;28;20138;-65
2022/02/07 12:01:49;;;;;;;2.55;0.80;;;;;;;7.44;54.16;97546.53;4983599;28;20038;-63
2022/02/07 12:04:31;;;;;;;3.13;0.80;;;;;;;7.32;52.82;97556.50;4977107;28;20042;-65
2022/02/07 12:07:19;;;;;;;4.03;1.27;;;;;;;8.45;51.19;97549.75;4985729;28;20050;-66
2022/02/07 12:09:58;;;;;;;4.32;0.80;;;;;;;8.99;49.56;97542.41;4988534;28;20054;-63
2022/02/07 12:12:30;;;;;;;5.05;1.45;;;;;;;9.27;53.16;97549.22;4984814;28;20551;-63
2022/02/07 12:15:03;;;;;;;22.25;7.50;;;;;;;8.61;49.26;97565.22;5003020;28;20077;-65
2022/02/07 12:17:39;;;;;;;6.93;1.70;;;;;;;8.82;47.25;97556.22;4984142;28;20400;-62
2022/02/07 12:20:09;;;;;;;5.88;1.20;;;;;;;8.90;47.25;97560.81;4974699;28;20042;-63
2022/02/07 12:22:58;;;;;;;2.45;0.68;;;;;;;8.45;49.44;97555.22;4985017;28;20523;-64
2022/02/07 12:25:23;;;;;;;4.13;1.10;;;;;;;8.51;48.39;97565.59;4977761;28;20347;-63
2022/02/07 12:27:51;;;;;;;2.55;0.82;;;;;;;7.39;50.43;97573.16;4982886;28;20128;-65
2022/02/07 12:30:29;;;;;;;5.40;1.08;;;;;;;6.92;52.18;97582.03;4976236;28;20050;-64
2022/02/07 12:32:55;;;;;;;4.40;1.00;;;;;;;6.36;55.40;97581.03;4981977;28;20058;-64
2022/02/07 12:35:25;;;;;;;3.92;1.02;;;;;;;6.03;56.19;97584.94;4975960;28;20384;-63
2022/02/07 12:37:51;;;;;;;4.78;1.10;;;;;;;6.13;54.63;97590.06;4987707;28;20181;-64
2022/02/07 12:40:17;;;;;;;8.70;0.98;;;;;;;6.03;57.31;97592.28;4982244;28;20041;-63
2022/02/07 12:42:44;;;;;;;8.15;1.30;;;;;;;5.61;56.73;97602.63;4974870;28;20419;-64
2022/02/07 12:45:10;;;;;;;5.30;1.45;;;;;;;5.65;55.84;97609.84;4974126;28;20385;-63
2022/02/07 12:47:38;;;;;;;2.97;0.93;;;;;;;5.48;57.04;97605.13;4982429;28;20074;-64
2022/02/07 12:50:10;;;;;;;3.60;0.88;;;;;;;5.26;58.18;97608.66;4977039;28;20441;-63
2022/02/07 12:52:37;;;;;;;5.20;1.33;;;;;;;5.16;55.46;97614.34;4994191;28;20058;-63
2022/02/07 12:55:04;;;;;;;9.23;1.30;;;;;;;5.02;57.05;97617.09;4981857;28;20084;-62
2022/02/07 12:57:43;;;;;;;6.40;1.10;;;;;;;4.77;57.29;97615.78;4984227;28;20042;-61
2022/02/07 13:00:14;;;;;;;1.80;0.98;;;;;;;4.46;57.30;97611.03;4992029;28;20487;-63
2022/02/07 13:02:44;;;;;;;4.78;1.60;;;;;;;4.52;57.37;97619.84;4983998;28;20046;-66
2022/02/07 13:05:11;;;;;;;8.02;1.50;;;;;;;4.64;57.95;97622.06;4967391;28;20110;-64
2022/02/07 13:07:42;;;;;;;3.53;1.15;;;;;;;5.12;56.87;97626.94;4972659;28;20042;-64
2022/02/07 13:10:09;;;;;;;4.10;1.00;;;;;;;6.10;54.31;97631.53;4974170;28;20039;-64
2022/02/07 13:13:07;;;;;;;7.65;1.25;;;;;;;6.37;51.50;97634.31;4983013;28;20077;-64
2022/02/07 13:15:35;;;;;;;3.50;0.93;;;;;;;6.80;49.90;97639.03;4990423;28;20141;-65
2022/02/07 13:18:07;;;;;;;9.02;2.42;;;;;;;6.41;48.68;97635.28;4973242;28;20496;-64
2022/02/07 13:20:35;;;;;;;5.45;1.20;;;;;;;6.58;49.69;97642.69;4968058;28;20051;-65
2022/02/07 13:23:05;;;;;;;8.00;1.35;;;;;;;6.53;49.46;97653.72;4972115;28;20069;-64
2022/02/07 13:25:42;;;;;;;8.68;1.50;;;;;;;6.68;48.92;97635.03;4982351;28;20070;-65
2022/02/07 13:28:16;;;;;;;5.30;1.30;;;;;;;7.19;50.06;97651.72;4972533;28;20035;-64
2022/02/07 13:30:45;;;;;;;4.28;1.10;;;;;;;7.19;47.94;97646.25;4985600;28;20096;-64
2022/02/07 13:33:11;;;;;;;4.40;1.02;;;;;;;6.83;49.33;97647.38;4965541;28;20046;-65
2022/02/07 13:35:45;;;;;;;6.13;1.10;;;;;;;6.82;50.98;97642.25;4993300;28;20076;-65
2022/02/07 13:38:12;;;;;;;9.48;1.40;;;;;;;6.48;51.89;97644.59;4962889;28;20042;-65
2022/02/07 13:40:47;;;;;;;8.13;1.40;;;;;;;6.82;51.35;97653.13;4967401;28;20042;-64
2022/02/07 13:43:27;;;;;;;6.65;1.17;;;;;;;6.46;51.25;97646.03;4970178;28;20046;-65
2022/02/07 13:45:58;;;;;;;3.38;1.10;;;;;;;6.51;50.75;97649.38;4976328;28;20043;-65
2022/02/07 13:48:26;;;;;;;5.25;1.23;;;;;;;6.63;49.93;97646.06;4962451;28;20572;-65
2022/02/07 13:50:57;;;;;;;6.45;1.50;;;;;;;6.50;51.23;97655.97;4977685;28;20046;-65
2022/02/07 13:53:24;;;;;;;3.92;1.08;;;;;;;6.39;49.91;97653.84;4961907;28;20820;-64
2022/02/07 13:55:51;;;;;;;5.28;1.15;;;;;;;5.91;51.09;97656.19;4962020;28;20054;-65
2022/02/07 13:58:38;;;;;;;4.88;1.63;;;;;;;5.69;51.97;97650.78;4962214;28;20057;-65
2022/02/07 14:01:14;;;;;;;6.53;1.58;;;;;;;5.45;53.34;97660.06;4985972;28;20064;-62
2022/02/07 14:03:45;;;;;;;20.95;7.93;;;;;;;5.52;52.87;97654.22;4967830;28;20056;-64
2022/02/07 14:06:12;;;;;;;5.25;1.50;;;;;;;5.79;52.65;97663.31;4977430;28;20050;-68
2022/02/07 14:08:47;;;;;;;6.97;1.40;;;;;;;5.68;53.84;97662.78;4987967;28;20129;-64
2022/02/07 14:11:15;;;;;;;5.45;1.23;;;;;;;5.80;53.22;97667.63;4979243;28;20031;-64
2022/02/07 14:13:42;;;;;;;5.97;1.08;;;;;;;6.01;53.13;97663.28;4970436;28;20075;-64
2022/02/07 14:16:10;;;;;;;5.80;1.98;;;;;;;5.88;52.81;97670.41;4968368;28;20041;-64
2022/02/07 14:18:38;;;;;;;4.18;1.35;;;;;;;6.10;53.77;97660.63;4981290;28;20075;-65